x

Western Hawaii - 205 Nm Sw Of Honolulu, Hi (51003) Wave Buoy

9:50am - Mon 22nd May 2017 All times are HST. -10 hours from GMT.

  • Sig Wave height 5.6ft
  • Swell Direction
  • Peak Period 13s
  • Average Period 6s
  • Wind
    18mph, 22mph gusts
  • Sea Temp 80°f
  • Air Temp 77°f
  • Sea Pressure 1016.9mb
  • Western  Hawaii - 205 Nm Sw Of Honolulu, Hi
  • Western  Hawaii - 205 Nm Sw Of Honolulu, Hi

More Historic Weather Station data

Upgrade to MSW Pro to gain access to the past 30 days of data for over 8000 Wavebouys and Weather Stations around the globe.

Join Pro

Comparision Forecast

View Surf forecast
   
Mon 05/22 9:50am 5.5ft 13s 6s 18 22 mph 1016.9mb 80f 77f
8:50am 5.5ft 14s 6s 13 18 mph 1017.1mb 79f 77f
7:50am 5ft 13s 6s 25 29 mph 1016.2mb 79f 74f
6:50am 5ft 13s 7s 18 20 mph 1015.7mb 79f 76f
5:50am 5ft 13s 7s 9 13 mph 1015.2mb 79f 77f
4:50am 5ft 14s 6s 4 7 mph 1014.8mb 79f 74f
2:50am 5ft 14s 7s 11 13 mph 1014.7mb 79f 78f
1:50am 5ft 14s 6s 16 18 mph 1015mb 80f 78f
12:50am 5.5ft 14s 6s 13 16 mph 1015.5mb 80f 78f
Sun 05/21 11:50pm 5ft 14s 6s 16 18 mph 1015.9mb 80f 78f
10:50pm 4.5ft 14s 6s 13 18 mph 1016.2mb 80f 78f
9:50pm 5ft 15s 6s 13 18 mph 1016mb 80f 78f
8:50pm 5ft 14s 6s 13 16 mph 1015.5mb 80f 78f
7:50pm 5ft 15s 6s 13 16 mph 1015mb 80f 78f
6:50pm 4.5ft 14s 6s 13 18 mph 1014.3mb 80f 78f
5:50pm 4.5ft 14s 6s 13 16 mph 1013.7mb 80f 78f
4:50pm 4.5ft 8s 6s 16 18 mph 1013.3mb 80f 78f
3:50pm 5ft 14s 6s 16 18 mph 1013.3mb 80f 78f
2:50pm 4.5ft 13s 6s 16 18 mph 1013.6mb 80f 78f
1:50pm 4.5ft 8s 6s 13 18 mph 1014.1mb 80f 78f
12:50pm 4.5ft 13s 6s 13 16 mph 1014.7mb 80f 78f
11:50am 4.5ft 14s 6s 11 13 mph 1015.2mb 80f 78f
10:50am 4.5ft 9s 6s 13 16 mph 1015.4mb 80f 78f
9:50am 5ft 9s 7s 11 13 mph 1015.5mb 80f 78f
8:50am 4.5ft 9s 6s 13 16 mph 1015.2mb 80f 78f
7:50am 4.5ft 9s 7s 11 16 mph 1015.1mb 80f 78f
6:50am 5ft 15s 6s 11 13 mph 1014.6mb 80f 77f
5:50am 4.5ft 15s 7s 13 16 mph 1013.9mb 80f 78f
4:50am 4.5ft 14s 7s 11 13 mph 1013.9mb 80f 78f
3:50am 4.5ft 14s 7s 11 13 mph 1013.8mb 80f 78f
2:50am 4.5ft 14s 7s 11 13 mph 1013.8mb 80f 78f
1:50am 4.5ft 14s 7s 11 13 mph 1014.4mb 80f 78f
12:50am 4.5ft 8s 7s 11 16 mph 1015.3mb 80f 77f
Sat 05/20 11:50pm 4.5ft 15s 7s 11 13 mph 1016.1mb 80f 78f
10:50pm 4.5ft 9s 7s 11 13 mph 1016.2mb 80f 78f
9:50pm 4.5ft 14s 7s 9 11 mph 1016.2mb 80f 78f
8:50pm 4.5ft 15s 7s 9 11 mph 1015.9mb 80f 78f
7:50pm 4.5ft 14s 7s 9 11 mph 1015.3mb 80f 78f
6:50pm 4.5ft 14s 7s 9 11 mph 1014.7mb 80f 78f
5:50pm 4.5ft 9s 7s 7 9 mph 1014.2mb 80f 79f
3:50pm 5ft 9s 7s 9 11 mph 1014.2mb 81f 78f
2:50pm 4.5ft 9s 7s 9 11 mph 1014.5mb 81f 78f
1:50pm 4.5ft 14s 7s 7 9 mph 1015mb 81f 78f
12:50pm 4.5ft 9s 7s 7 9 mph 1015.6mb 80f 78f
11:50am 4.5ft 9s 7s 9 11 mph 1015.8mb 80f 78f
10:50am 4.5ft 14s 7s 7 11 mph 1015.9mb 80f 78f
9:50am 4.5ft 14s 7s 7 9 mph 1016.1mb 80f 78f
8:50am 4.5ft 9s 8s 9 9 mph 1016mb 80f 78f
7:50am 4.5ft 14s 7s 9 11 mph 1015.7mb 79f 78f
6:50am 5ft 14s 7s 9 11 mph 1015.2mb 79f 77f
5:50am 5ft 8s 7s 9 13 mph 1014.6mb 79f 77f
4:50am 4.5ft 9s 7s 9 11 mph 1014.3mb 79f 77f
3:50am 4.5ft 15s 7s 7 9 mph 1014.5mb 79f 76f
2:50am 5ft 14s 7s 7 11 mph 1014.8mb 80f 77f
1:50am 4.5ft 9s 7s 7 9 mph 1015.3mb 80f 77f
12:50am 4.5ft 15s 7s 9 11 mph 1016.1mb 80f 78f
Fri 05/19 11:50pm 4.5ft 8s 7s 11 11 mph 1016.6mb 80f 78f
10:50pm 5ft 8s 7s 7 9 mph 1016.9mb 80f 78f
9:50pm 5ft 9s 7s 11 13 mph 1016.6mb 80f 78f
8:50pm 4.5ft 8s 7s 9 11 mph 1015.8mb 80f 78f
7:50pm 5ft 9s 7s 9 11 mph 1015.3mb 80f 78f
6:50pm 5ft 9s 7s 9 11 mph 1014.7mb 80f 78f
5:50pm 5ft 8s 7s 9 13 mph 1014.4mb 80f 78f
4:50pm 4.5ft 10s 7s 11 13 mph 1014.4mb 80f 78f
3:50pm 4.5ft 9s 7s 9 11 mph 1014.8mb 80f 78f
2:50pm 5ft 8s 7s 9 11 mph 1014.9mb 80f 78f
1:50pm 4.5ft 9s 7s 9 13 mph 1015.4mb 80f 78f
12:50pm 5ft 9s 7s 9 11 mph 1015.9mb 80f 77f
11:50am 5ft 11s 7s 7 9 mph 1016.4mb 80f 77f
10:50am 5ft 9s 7s 7 9 mph 1016.6mb 80f 77f
9:50am 5ft 9s 7s 7 9 mph 1016.7mb 79f 77f
8:50am 5ft 8s 7s 7 9 mph 1016.7mb 79f 77f
7:50am 5ft 9s 7s 7 9 mph 1016.3mb 79f 77f
6:50am 5ft 11s 8s 4 7 mph 1016mb 79f 77f
5:50am 5ft 11s 8s 4 9 mph 1015.3mb 79f 77f
4:50am 5ft 10s 7s 7 9 mph 1015.1mb 79f 77f
3:50am 5ft 9s 8s 7 9 mph 1015.1mb 79f 77f
2:50am 5ft 10s 7s 7 9 mph 1015.1mb 79f 77f
1:50am 5ft 9s 7s 4 7 mph 1015.6mb 79f 77f
12:50am 5ft 11s 7s 7 9 mph 1016.1mb 79f 77f
Thu 05/18 11:50pm 5.5ft 9s 7s 4 7 mph 1016.6mb 79f 77f
10:50pm 6ft 9s 7s 7 9 mph 1016.6mb 79f 78f
9:50pm 5ft 10s 7s 7 11 mph 1016.5mb 79f 78f